DSTT2: Red River at Denison Dam nr Denison, TX

                                SHEF ID:       DSTT2     Red River at Denison Dam nr Deni
STATION TYPE:

PRECIP STAGE RIV-FLOW BAT-LOAD
in ft cfs volt
Ccp-Rev Ccp-Rev Ccp-Rev Ccp-Rev
(America/Chicago)
03/08 00:00 0.00 10.10 13688 12.65
03/08 01:00 0.00 10.14 13803 12.63
03/08 03:00 0.00 10.15 13832 12.60
03/08 04:00 0.00 10.15 13832 12.57
03/08 05:00 0.00 10.18 13918 12.55
03/08 06:00 0.00 10.11 13716 12.53
03/08 07:00 0.00 10.17 13889 12.50
03/08 08:00 0.00 10.14 13803 12.49
03/08 09:00 0.00 9.89 13087 12.50
03/08 10:00 0.00 7.46 4445 13.22
03/08 11:00 0.00 6.32 1846 13.79
03/08 12:00 0.00 5.65 859 13.93
03/08 13:00 0.00 5.22 426 13.96
03/08 14:00 0.00 4.92 227 13.98
03/08 15:00 0.00 4.71 129 13.99
03/08 16:00 0.00 5.22 426 13.97
03/08 17:00 0.00 8.55 7997 13.75
03/08 18:00 0.00 9.50 11768 13.58
03/08 19:00 0.00 9.91 13143 13.34
03/08 20:00 0.00 10.05 13544 13.14
03/08 21:00 0.00 10.15 13832 12.90
03/08 22:00 0.00 9.83 12917 12.80
03/08 23:00 0.00 7.45 4417 12.73
Data processed at Mon 09Mar2026 04:11 GMT

NOTICE: If you are parsing this page

Please convert to using our Data API. Starting early 2026 we will be migrating to: https://water.usace.army.mil with modern pages rendered in JavaScript. When this migration completes you will no longer be able to scrape this page! CWMSDataAPI (CDA)

Timeseries IDs (TSIDs)

TSIDs used from left to right in the data table
DEN2.Precip-Inc.Total.1Hour.1Hour.Ccp-Rev
DEN2.Stage.Inst.1Hour.0.Ccp-Rev
DEN2.Flow.Inst.1Hour.0.Ccp-Rev
DEN2.Volt-Battery Load.Inst.1Hour.0.Ccp-Rev

                            

All information presented herein is the property of the government of the United States of America and may be revised or deleted at any time without prior notice. Dissemination of this information without the expressed written consent of the Public Affairs Office, Tulsa District U.S. Army Corps of Engineers is strictly prohibited. These data are gathered electronically and, as presented, have NOT undergone any form of quality control. These data are NOT guaranteed to be valid or correct.